createdAt,value
2019-01-23T00:00:17.206Z,-0.10
2019-01-23T00:02:45.979Z,-0.10
2019-01-23T00:05:14.714Z,0.00
2019-01-23T00:07:43.446Z,0.00
2019-01-23T00:10:12.212Z,-0.10
2019-01-23T00:12:40.966Z,0.00
2019-01-23T00:15:09.716Z,0.00
2019-01-23T00:17:38.555Z,-0.10
2019-01-23T00:20:07.576Z,-0.10
2019-01-23T00:22:36.430Z,-0.10
2019-01-23T00:25:05.455Z,0.00
2019-01-23T00:27:34.277Z,-0.10
2019-01-23T00:30:03.093Z,-0.10
2019-01-23T00:32:31.916Z,-0.10
2019-01-23T00:35:00.630Z,-0.20
2019-01-23T00:37:29.431Z,-0.20
2019-01-23T00:39:58.308Z,-0.10
2019-01-23T00:42:27.110Z,-0.20
2019-01-23T00:44:55.875Z,-0.20
2019-01-23T00:47:24.599Z,-0.20
2019-01-23T00:49:53.343Z,-0.10
2019-01-23T00:52:22.283Z,-0.20
2019-01-23T00:54:50.996Z,-0.20
2019-01-23T00:57:19.763Z,-0.20
2019-01-23T00:59:48.523Z,-0.20
2019-01-23T01:02:17.250Z,-0.20
2019-01-23T01:04:46.001Z,-0.10
2019-01-23T01:07:14.731Z,-0.20
2019-01-23T01:09:43.537Z,-0.20
2019-01-23T01:12:12.282Z,-0.30
2019-01-23T01:14:41.022Z,-0.40
2019-01-23T01:17:09.816Z,-0.20
2019-01-23T01:19:38.551Z,-0.20
2019-01-23T01:22:07.260Z,-0.20
2019-01-23T01:24:36.055Z,-0.30
2019-01-23T01:27:05.120Z,-0.40
2019-01-23T01:29:33.824Z,-0.40
2019-01-23T01:32:02.692Z,-0.50
2019-01-23T01:34:31.589Z,-0.50
2019-01-23T01:37:02.401Z,-0.40
2019-01-23T01:39:31.187Z,-0.40
2019-01-23T01:41:59.959Z,-0.40
2019-01-23T01:44:28.684Z,-0.40
2019-01-23T01:46:57.507Z,-0.50
2019-01-23T01:49:26.224Z,-0.50
2019-01-23T01:51:55.230Z,-0.40
2019-01-23T01:54:24.128Z,-0.40
2019-01-23T01:56:52.904Z,-0.40
2019-01-23T01:59:21.722Z,-0.40
2019-01-23T02:01:50.514Z,-0.50
2019-01-23T02:04:19.228Z,-0.50
2019-01-23T02:06:47.964Z,-0.40
2019-01-23T02:09:16.696Z,-0.40
2019-01-23T02:11:45.588Z,-0.40
2019-01-23T02:14:14.414Z,-0.40
2019-01-23T02:16:43.136Z,-0.40
2019-01-23T02:19:11.887Z,-0.50
2019-01-23T02:21:40.626Z,-0.40
2019-01-23T02:24:09.423Z,-0.40
2019-01-23T02:26:38.145Z,-0.50
2019-01-23T02:29:09.539Z,-0.50
2019-01-23T02:31:37.368Z,-0.50
2019-01-23T02:34:06.115Z,-0.50
2019-01-23T02:36:34.842Z,-0.50
2019-01-23T02:39:04.538Z,-0.50
2019-01-23T02:41:33.266Z,-0.50
2019-01-23T02:44:02.128Z,-0.40
2019-01-23T02:46:30.871Z,-0.50
2019-01-23T02:48:59.694Z,-0.60
2019-01-23T02:51:28.437Z,-0.60
2019-01-23T02:53:57.238Z,-0.70
2019-01-23T02:56:25.967Z,-0.70
2019-01-23T02:58:54.816Z,-0.80
2019-01-23T03:01:23.565Z,-0.80
2019-01-23T03:03:52.309Z,-0.80
2019-01-23T03:06:21.143Z,-0.80
2019-01-23T03:08:49.833Z,-0.80
2019-01-23T03:11:18.575Z,-0.80
2019-01-23T03:13:47.292Z,-0.70
2019-01-23T03:16:16.049Z,-0.80
2019-01-23T03:18:44.800Z,-0.80
2019-01-23T03:21:13.568Z,-0.80
2019-01-23T03:23:42.487Z,-0.80
2019-01-23T03:26:11.194Z,-0.80
2019-01-23T03:28:39.956Z,-0.80
2019-01-23T03:31:08.660Z,-0.80
2019-01-23T03:33:37.510Z,-0.80
2019-01-23T03:36:06.265Z,-0.90
2019-01-23T03:38:35.019Z,-0.90
2019-01-23T03:41:04.013Z,-0.90
2019-01-23T03:43:32.723Z,-1.00
2019-01-23T03:46:01.518Z,-0.90
2019-01-23T03:48:30.245Z,-1.00
2019-01-23T03:50:58.984Z,-1.00
2019-01-23T03:53:27.751Z,-0.90
2019-01-23T03:55:56.509Z,-1.00
2019-01-23T03:58:25.300Z,-1.00
2019-01-23T04:00:54.164Z,-1.00
2019-01-23T04:03:22.935Z,-1.00
2019-01-23T04:05:51.723Z,-1.00
2019-01-23T04:08:20.554Z,-1.00
2019-01-23T04:10:49.360Z,-1.10
2019-01-23T04:13:18.141Z,-1.10
2019-01-23T04:15:46.831Z,-1.10
2019-01-23T04:18:15.551Z,-1.10
2019-01-23T04:20:44.311Z,-1.20
2019-01-23T04:23:13.069Z,-1.20
2019-01-23T04:25:45.513Z,-1.20
2019-01-23T04:28:14.297Z,-1.30
2019-01-23T04:30:42.991Z,-1.30
2019-01-23T04:33:11.751Z,-1.30
2019-01-23T04:35:40.454Z,-1.40
2019-01-23T04:38:09.239Z,-1.40
2019-01-23T04:40:38.227Z,-1.40
2019-01-23T04:43:07.057Z,-1.40
2019-01-23T04:45:35.766Z,-1.30
2019-01-23T04:48:04.557Z,-1.30
2019-01-23T04:50:35.026Z,-1.30
2019-01-23T04:53:17.747Z,-1.40
2019-01-23T04:55:46.465Z,-1.50
2019-01-23T04:58:15.182Z,-1.50
2019-01-23T05:00:43.936Z,-1.50
2019-01-23T05:03:12.782Z,-1.40
2019-01-23T05:05:41.460Z,-1.60
2019-01-23T05:08:10.175Z,-1.60
2019-01-23T05:10:38.888Z,-1.60
2019-01-23T05:13:07.589Z,-1.50
2019-01-23T05:15:36.414Z,-1.60
2019-01-23T05:18:05.141Z,-1.60
2019-01-23T05:20:33.837Z,-1.60
2019-01-23T05:23:02.834Z,-1.60
2019-01-23T05:25:31.567Z,-1.60
2019-01-23T05:28:00.283Z,-1.60
2019-01-23T05:30:29.004Z,-1.60
2019-01-23T05:32:57.713Z,-1.50
2019-01-23T05:35:26.408Z,-1.50
2019-01-23T05:37:55.086Z,-1.50
2019-01-23T05:40:23.776Z,-1.50
2019-01-23T05:42:52.515Z,-1.60
2019-01-23T05:45:21.226Z,-1.50
2019-01-23T05:47:49.942Z,-1.50
2019-01-23T05:50:18.815Z,-1.50
2019-01-23T05:52:48.763Z,-1.60
2019-01-23T05:55:17.486Z,-1.60
2019-01-23T05:57:46.246Z,-1.60
2019-01-23T06:00:16.997Z,-1.50
2019-01-23T06:02:45.701Z,-1.50
2019-01-23T06:05:14.526Z,-1.50
2019-01-23T06:07:43.236Z,-1.40
2019-01-23T06:10:11.980Z,-1.40
2019-01-23T06:12:40.709Z,-1.40
2019-01-23T06:15:10.241Z,-1.40
2019-01-23T06:17:38.981Z,-1.20
2019-01-23T06:20:09.862Z,-1.30
2019-01-23T06:22:38.625Z,-1.20
2019-01-23T06:25:07.496Z,-1.20
2019-01-23T06:27:36.399Z,-1.30
2019-01-23T06:30:10.491Z,-1.30
2019-01-23T06:32:38.613Z,-1.20
2019-01-23T06:35:07.399Z,-1.20
2019-01-23T06:37:36.236Z,-1.20
2019-01-23T06:40:06.056Z,-1.20
2019-01-23T06:42:34.869Z,-1.20
2019-01-23T06:45:03.847Z,-1.10
2019-01-23T06:47:32.530Z,-1.10
2019-01-23T06:50:01.301Z,-1.10
2019-01-23T06:52:30.037Z,-1.10
2019-01-23T06:54:58.790Z,-1.10
2019-01-23T06:57:27.561Z,-1.00
2019-01-23T06:59:56.395Z,-1.00
2019-01-23T07:02:25.163Z,-1.10
2019-01-23T07:04:53.907Z,-1.10
2019-01-23T07:07:23.045Z,-1.10
2019-01-23T07:09:51.771Z,-1.00
2019-01-23T07:12:20.445Z,-1.00
2019-01-23T07:14:49.194Z,-1.00
2019-01-23T07:17:17.883Z,-1.00
2019-01-23T07:19:46.671Z,-1.00
2019-01-23T07:22:15.439Z,-0.90
2019-01-23T07:24:44.298Z,-1.00
2019-01-23T07:27:13.007Z,-0.90
2019-01-23T07:29:41.834Z,-0.90
2019-01-23T07:32:10.545Z,-0.90
2019-01-23T07:34:39.280Z,-0.90
2019-01-23T07:37:08.327Z,-0.80
2019-01-23T07:39:37.063Z,-0.90
2019-01-23T07:42:05.830Z,-0.90
2019-01-23T07:44:35.708Z,-0.90
2019-01-23T07:47:04.517Z,-0.90
2019-01-23T07:49:33.246Z,-0.90
2019-01-23T07:52:01.982Z,-0.90
2019-01-23T07:54:30.811Z,-0.90
2019-01-23T07:57:02.371Z,-0.90
2019-01-23T07:59:31.172Z,-0.80
2019-01-23T08:01:59.878Z,-0.80
2019-01-23T08:04:28.663Z,-0.70
2019-01-23T08:06:57.361Z,-0.70
2019-01-23T08:09:26.177Z,-0.80
2019-01-23T08:11:54.861Z,-0.80
2019-01-23T08:14:23.623Z,-0.80
2019-01-23T08:16:52.349Z,-0.90
2019-01-23T08:19:21.144Z,-0.80
2019-01-23T08:21:49.873Z,-0.80
2019-01-23T08:24:18.606Z,-0.70
2019-01-23T08:26:47.337Z,-0.70
2019-01-23T08:29:16.424Z,-0.60
2019-01-23T08:31:45.188Z,-0.60
2019-01-23T08:34:13.928Z,-0.70
2019-01-23T08:36:42.737Z,-0.70
2019-01-23T08:39:11.584Z,-0.60
2019-01-23T08:41:40.343Z,-0.60
2019-01-23T08:44:09.106Z,-0.60
2019-01-23T08:46:37.963Z,-0.60
2019-01-23T08:49:06.835Z,-0.60
2019-01-23T08:51:35.596Z,-0.70
2019-01-23T08:54:04.637Z,-0.70
2019-01-23T08:56:33.383Z,-0.70
2019-01-23T08:59:02.245Z,-0.70
2019-01-23T09:01:31.293Z,-0.70
2019-01-23T09:04:00.025Z,-0.70
2019-01-23T09:06:28.876Z,-0.60
2019-01-23T09:08:57.611Z,-0.50
2019-01-23T09:11:26.415Z,-0.50
2019-01-23T09:13:55.261Z,-0.50
2019-01-23T09:16:24.035Z,-0.50
2019-01-23T09:18:52.765Z,-0.40
2019-01-23T09:21:21.481Z,-0.40
2019-01-23T09:23:50.268Z,-0.30
2019-01-23T09:26:19.027Z,-0.20
2019-01-23T09:28:47.762Z,-0.20
2019-01-23T09:31:56.412Z,-0.20
2019-01-23T09:34:43.554Z,-0.10
2019-01-23T09:37:44.427Z,-0.20
2019-01-23T09:40:34.037Z,-0.30
2019-01-23T09:43:53.293Z,-0.30
2019-01-23T09:47:03.537Z,-0.20
2019-01-23T09:49:49.104Z,-0.10
2019-01-23T09:52:40.798Z,-0.10
2019-01-23T09:55:11.323Z,-0.10
2019-01-23T09:57:44.065Z,0.00
2019-01-23T10:00:16.915Z,0.00
2019-01-23T10:02:45.646Z,0.00
2019-01-23T10:05:14.420Z,-0.10
2019-01-23T10:07:43.175Z,0.10
2019-01-23T10:10:13.949Z,0.10
2019-01-23T10:12:42.800Z,0.20
2019-01-23T10:15:15.063Z,0.30
2019-01-23T10:17:43.979Z,0.30
2019-01-23T10:20:12.696Z,0.40
2019-01-23T10:22:41.455Z,0.50
2019-01-23T10:25:10.204Z,0.50
2019-01-23T10:27:39.040Z,0.60
2019-01-23T10:30:08.502Z,0.30
2019-01-23T10:32:37.222Z,0.30
2019-01-23T10:35:08.624Z,0.50
2019-01-23T10:37:37.456Z,0.40
2019-01-23T10:40:07.401Z,0.40
2019-01-23T10:42:36.297Z,0.40
2019-01-23T10:45:05.636Z,0.30
2019-01-23T10:47:34.462Z,0.30
2019-01-23T10:50:03.570Z,0.40
2019-01-23T10:52:32.311Z,0.30
2019-01-23T10:55:01.199Z,0.30
2019-01-23T10:57:29.991Z,0.30
2019-01-23T10:59:58.812Z,0.30
2019-01-23T11:02:27.503Z,0.30
2019-01-23T11:04:56.533Z,0.40
2019-01-23T11:07:25.277Z,0.30
2019-01-23T11:09:54.369Z,0.50
2019-01-23T11:12:23.144Z,0.60
2019-01-23T11:14:51.903Z,0.50
2019-01-23T11:17:22.241Z,0.60
2019-01-23T11:19:51.113Z,0.60
2019-01-23T11:22:20.068Z,0.70
2019-01-23T11:24:49.026Z,0.80
2019-01-23T11:27:17.767Z,0.60
2019-01-23T11:29:46.526Z,0.60
2019-01-23T11:32:15.302Z,0.60
2019-01-23T11:34:44.133Z,0.40
2019-01-23T11:37:12.868Z,0.30
2019-01-23T11:39:41.662Z,0.40
2019-01-23T11:42:10.607Z,0.50
2019-01-23T11:44:39.605Z,0.40
2019-01-23T11:47:08.787Z,0.40
2019-01-23T11:49:37.572Z,0.40
2019-01-23T11:52:06.291Z,0.40
2019-01-23T11:54:35.034Z,0.30
2019-01-23T11:57:03.891Z,0.40
2019-01-23T11:59:32.682Z,0.50
2019-01-23T12:02:01.861Z,0.60
2019-01-23T12:04:30.614Z,0.70
2019-01-23T12:06:59.592Z,0.60
2019-01-23T12:09:28.628Z,0.60
2019-01-23T12:11:57.729Z,0.50
2019-01-23T12:14:26.510Z,0.70
2019-01-23T12:16:55.295Z,0.60
2019-01-23T12:19:24.073Z,0.60
2019-01-23T12:21:52.793Z,0.50
2019-01-23T12:24:21.560Z,0.40
2019-01-23T12:26:50.427Z,0.50
2019-01-23T12:29:19.104Z,0.50
2019-01-23T12:31:47.823Z,0.40
2019-01-23T12:34:16.610Z,0.60
2019-01-23T12:36:45.387Z,0.40
2019-01-23T12:39:14.217Z,0.50
2019-01-23T12:41:43.484Z,0.60
2019-01-23T12:44:12.397Z,0.50
2019-01-23T12:46:41.598Z,0.60
2019-01-23T12:49:10.421Z,0.70
2019-01-23T12:51:39.184Z,0.80
2019-01-23T12:54:08.042Z,0.70
2019-01-23T12:56:36.988Z,0.70
2019-01-23T12:59:06.005Z,0.80
2019-01-23T13:01:41.798Z,0.80
2019-01-23T13:04:05.569Z,0.60
2019-01-23T13:06:34.785Z,0.60
2019-01-23T13:09:05.065Z,0.60
2019-01-23T13:11:36.524Z,0.50
2019-01-23T13:14:05.231Z,0.60
2019-01-23T13:16:34.151Z,0.70
2019-01-23T13:19:03.032Z,0.90
2019-01-23T13:21:31.897Z,1.00
2019-01-23T13:24:00.698Z,0.80
2019-01-23T13:26:29.822Z,0.70
2019-01-23T13:28:58.968Z,0.80
2019-01-23T13:31:27.821Z,0.70
2019-01-23T13:33:56.737Z,0.60
2019-01-23T13:36:25.471Z,0.60
2019-01-23T13:38:54.448Z,0.40
2019-01-23T13:41:23.608Z,0.30
2019-01-23T13:43:55.299Z,0.30
2019-01-23T13:46:24.260Z,0.30
2019-01-23T13:48:53.023Z,0.30
2019-01-23T13:51:21.783Z,0.40
2019-01-23T13:53:50.920Z,0.40
2019-01-23T13:56:19.751Z,0.20
2019-01-23T13:58:48.684Z,0.10
2019-01-23T14:01:17.645Z,0.20
2019-01-23T14:03:47.051Z,0.40
2019-01-23T14:06:16.034Z,0.30
2019-01-23T14:08:46.039Z,0.40
2019-01-23T14:11:14.948Z,0.40
2019-01-23T14:13:43.846Z,0.40
2019-01-23T14:16:12.618Z,0.40
2019-01-23T14:18:41.482Z,0.30
2019-01-23T14:21:10.247Z,0.40
2019-01-23T14:23:38.918Z,0.20
2019-01-23T14:26:07.680Z,0.30
2019-01-23T14:28:36.886Z,0.40
2019-01-23T14:31:06.966Z,0.20
2019-01-23T14:33:35.771Z,0.30
2019-01-23T14:36:04.812Z,0.30
2019-01-23T14:38:33.488Z,0.40
2019-01-23T14:41:02.249Z,0.40
2019-01-23T14:43:31.244Z,0.40
2019-01-23T14:45:59.964Z,0.20
2019-01-23T14:48:29.085Z,0.10
2019-01-23T14:50:58.056Z,0.10
2019-01-23T14:53:26.884Z,0.00
2019-01-23T14:55:55.620Z,0.00
2019-01-23T14:58:24.420Z,-0.10
2019-01-23T15:00:53.203Z,-0.10
2019-01-23T15:03:22.059Z,-0.10
2019-01-23T15:05:51.069Z,0.00
2019-01-23T15:08:19.953Z,0.00
2019-01-23T15:10:48.701Z,-0.20
2019-01-23T15:13:17.503Z,-0.30
2019-01-23T15:15:46.385Z,-0.40
2019-01-23T15:18:15.162Z,-0.40
2019-01-23T15:20:43.962Z,-0.30
2019-01-23T15:23:12.773Z,-0.30
2019-01-23T15:25:41.677Z,-0.30
2019-01-23T15:28:10.495Z,-0.40
2019-01-23T15:30:39.197Z,-0.50
2019-01-23T15:33:08.126Z,-0.50
2019-01-23T15:35:37.009Z,-0.50
2019-01-23T15:38:05.679Z,-0.40
2019-01-23T15:40:37.015Z,-0.50
2019-01-23T15:43:05.808Z,-0.60
2019-01-23T15:45:34.604Z,-0.60
2019-01-23T15:48:03.326Z,-0.50
2019-01-23T15:50:32.143Z,-0.70
2019-01-23T15:53:01.038Z,-0.70
2019-01-23T15:55:29.885Z,-0.60
2019-01-23T15:57:58.615Z,-0.80
2019-01-23T16:00:31.823Z,-0.70
2019-01-23T16:03:00.655Z,-0.70
2019-01-23T16:05:29.501Z,-0.80
2019-01-23T16:07:58.833Z,-0.80
2019-01-23T16:10:28.673Z,-0.80
2019-01-23T16:12:57.553Z,-0.80
2019-01-23T16:15:27.273Z,-0.80
2019-01-23T16:17:57.442Z,-0.80
2019-01-23T16:20:26.454Z,-0.80
2019-01-23T16:22:55.268Z,-0.70
2019-01-23T16:25:24.011Z,-0.80
2019-01-23T16:27:52.882Z,-0.80
2019-01-23T16:30:38.255Z,-0.70
2019-01-23T16:33:07.353Z,-0.70
2019-01-23T16:35:38.824Z,-0.80
2019-01-23T16:38:08.139Z,-0.70
2019-01-23T16:40:36.943Z,-0.90
2019-01-23T16:43:05.883Z,-0.80
2019-01-23T16:45:34.680Z,-0.90
2019-01-23T16:48:03.706Z,-0.90
2019-01-23T16:50:32.537Z,-0.90
2019-01-23T16:53:01.496Z,-0.90
2019-01-23T16:55:30.516Z,-0.90
2019-01-23T16:58:00.175Z,-0.90
2019-01-23T17:00:29.149Z,-1.00
2019-01-23T17:02:58.397Z,-1.00
2019-01-23T17:05:29.347Z,-0.90
2019-01-23T17:08:00.084Z,-0.90
2019-01-23T17:10:29.109Z,-1.10
2019-01-23T17:13:02.215Z,-1.10
2019-01-23T17:15:31.331Z,-1.00
2019-01-23T17:18:00.541Z,-1.10
2019-01-23T17:20:35.362Z,-1.10
2019-01-23T17:23:05.807Z,-1.00
2019-01-23T17:25:34.813Z,-1.10
2019-01-23T17:28:03.748Z,-1.20
2019-01-23T17:30:32.562Z,-1.20
2019-01-23T17:33:01.663Z,-1.20
2019-01-23T17:35:30.753Z,-1.20
2019-01-23T17:37:59.897Z,-1.30
2019-01-23T17:40:28.887Z,-1.30
2019-01-23T17:42:57.602Z,-1.30
2019-01-23T17:45:31.639Z,-1.30
2019-01-23T17:48:00.540Z,-1.40
2019-01-23T17:50:29.518Z,-1.40
2019-01-23T17:52:58.350Z,-1.30
2019-01-23T17:55:32.356Z,-1.30
2019-01-23T17:58:01.387Z,-1.30
2019-01-23T18:00:32.737Z,-1.40
2019-01-23T18:03:01.860Z,-1.50
2019-01-23T18:05:30.939Z,-1.30
2019-01-23T18:07:59.762Z,-1.40
2019-01-23T18:10:28.795Z,-1.40
2019-01-23T18:12:57.623Z,-1.50
2019-01-23T18:15:26.662Z,-1.60
2019-01-23T18:17:56.136Z,-1.50
2019-01-23T18:20:26.913Z,-1.40
2019-01-23T18:22:55.758Z,-1.50
2019-01-23T18:25:24.610Z,-1.40
2019-01-23T18:27:53.660Z,-1.60
2019-01-23T18:30:25.777Z,-1.60
2019-01-23T18:32:59.872Z,-1.60
2019-01-23T18:35:54.068Z,-1.60
2019-01-23T18:38:35.974Z,-1.70
2019-01-23T18:41:33.874Z,-1.80
2019-01-23T18:44:54.807Z,-1.70
2019-01-23T18:48:12.511Z,-1.80
2019-01-23T18:51:30.579Z,-1.80
2019-01-23T18:53:59.552Z,-1.70
2019-01-23T18:56:28.444Z,-1.80
2019-01-23T18:58:57.245Z,-1.80
2019-01-23T19:01:26.157Z,-1.90
2019-01-23T19:03:55.216Z,-1.80
2019-01-23T19:06:24.030Z,-1.90
2019-01-23T19:08:52.805Z,-1.90
2019-01-23T19:11:21.592Z,-1.90
2019-01-23T19:13:50.311Z,-1.90
2019-01-23T19:16:19.772Z,-1.90
2019-01-23T19:18:48.686Z,-2.10
2019-01-23T19:21:17.435Z,-2.00
2019-01-23T19:23:46.202Z,-2.10
2019-01-23T19:26:15.183Z,-2.10
2019-01-23T19:28:44.079Z,-2.10
2019-01-23T19:31:13.056Z,-2.10
2019-01-23T19:33:41.821Z,-2.10
2019-01-23T19:36:13.711Z,-2.00
2019-01-23T19:38:42.738Z,-2.10
2019-01-23T19:41:11.655Z,-2.00
2019-01-23T19:43:43.202Z,-2.10
2019-01-23T19:46:11.979Z,-2.00
2019-01-23T19:48:40.824Z,-2.10
2019-01-23T19:51:09.929Z,-2.00
2019-01-23T19:53:38.761Z,-2.00
2019-01-23T19:56:08.177Z,-2.00
2019-01-23T19:58:36.962Z,-2.10
2019-01-23T20:01:05.794Z,-2.20
2019-01-23T20:03:34.501Z,-2.30
2019-01-23T20:06:03.290Z,-2.20
2019-01-23T20:08:32.202Z,-2.10
2019-01-23T20:11:01.019Z,-2.20
2019-01-23T20:13:29.789Z,-2.30
2019-01-23T20:16:01.258Z,-2.20
2019-01-23T20:18:30.118Z,-2.10
2019-01-23T20:20:58.963Z,-2.20
2019-01-23T20:23:27.696Z,-2.30
2019-01-23T20:25:56.559Z,-2.30
2019-01-23T20:28:25.360Z,-2.20
2019-01-23T20:30:54.514Z,-2.20
2019-01-23T20:33:27.954Z,-2.20
2019-01-23T20:35:53.870Z,-2.20
2019-01-23T20:38:22.812Z,-2.20
2019-01-23T20:40:51.536Z,-2.20
2019-01-23T20:43:20.592Z,-2.30
2019-01-23T20:45:49.539Z,-2.20
2019-01-23T20:48:18.647Z,-2.30
2019-01-23T20:50:47.457Z,-2.30
2019-01-23T20:53:16.299Z,-2.40
2019-01-23T20:55:45.015Z,-2.30
2019-01-23T20:58:13.788Z,-2.30
2019-01-23T21:00:42.720Z,-2.30
2019-01-23T21:03:11.639Z,-2.20
2019-01-23T21:05:40.387Z,-2.20
2019-01-23T21:08:09.321Z,-2.10
2019-01-23T21:10:38.136Z,-2.10
2019-01-23T21:13:06.944Z,-2.00
2019-01-23T21:15:35.789Z,-2.10
2019-01-23T21:18:05.389Z,-2.10
2019-01-23T21:20:36.476Z,-2.10
2019-01-23T21:23:05.611Z,-2.10
2019-01-23T21:25:34.528Z,-2.00
2019-01-23T21:28:03.277Z,-2.00
2019-01-23T21:30:32.306Z,-2.10
2019-01-23T21:33:01.173Z,-2.10
2019-01-23T21:35:29.983Z,-2.10
2019-01-23T21:37:58.875Z,-2.10
2019-01-23T21:40:33.779Z,-2.10
2019-01-23T21:43:02.904Z,-2.00
2019-01-23T21:45:33.912Z,-2.00
2019-01-23T21:48:02.752Z,-2.10
2019-01-23T21:50:31.598Z,-2.10
2019-01-23T21:53:00.322Z,-2.00
2019-01-23T21:55:29.105Z,-2.10
2019-01-23T21:57:57.935Z,-2.10
2019-01-23T22:00:41.444Z,-2.10
2019-01-23T22:03:10.930Z,-2.10
2019-01-23T22:05:39.673Z,-2.20
2019-01-23T22:08:08.769Z,-2.20
2019-01-23T22:10:37.457Z,-2.20
2019-01-23T22:13:06.230Z,-2.30
2019-01-23T22:15:35.172Z,-2.30
2019-01-23T22:18:05.138Z,-2.40
2019-01-23T22:20:34.489Z,-2.40
2019-01-23T22:23:03.296Z,-2.30
2019-01-23T22:25:32.146Z,-2.20
2019-01-23T22:28:01.234Z,-2.40
2019-01-23T22:30:31.011Z,-2.40
2019-01-23T22:32:59.814Z,-2.50
2019-01-23T22:35:28.499Z,-2.50
2019-01-23T22:37:57.276Z,-2.50
2019-01-23T22:40:26.197Z,-2.60
2019-01-23T22:42:54.938Z,-2.60
2019-01-23T22:45:23.689Z,-2.60
2019-01-23T22:47:52.475Z,-2.70
2019-01-23T22:50:22.937Z,-2.70
2019-01-23T22:52:51.784Z,-2.70
2019-01-23T22:55:20.629Z,-2.80
2019-01-23T22:57:49.322Z,-2.80
2019-01-23T23:00:23.212Z,-2.70
2019-01-23T23:02:52.060Z,-2.70
2019-01-23T23:05:20.958Z,-3.00
2019-01-23T23:07:49.785Z,-2.90
2019-01-23T23:10:18.503Z,-2.90
2019-01-23T23:12:47.275Z,-2.80
2019-01-23T23:15:15.979Z,-2.90
2019-01-23T23:17:44.711Z,-3.00
2019-01-23T23:20:13.526Z,-3.00
2019-01-23T23:22:42.235Z,-3.00
2019-01-23T23:25:11.029Z,-3.10
2019-01-23T23:27:39.799Z,-3.20
2019-01-23T23:30:10.767Z,-3.10
2019-01-23T23:32:39.569Z,-3.20
2019-01-23T23:35:08.347Z,-3.30
2019-01-23T23:37:37.288Z,-3.30
2019-01-23T23:40:06.671Z,-3.20
2019-01-23T23:42:35.563Z,-3.20
2019-01-23T23:45:05.382Z,-3.30
2019-01-23T23:47:34.506Z,-3.40
2019-01-23T23:50:03.231Z,-3.40
2019-01-23T23:52:32.085Z,-3.40
2019-01-23T23:55:00.852Z,-3.50
2019-01-23T23:57:29.824Z,-3.50
2019-01-23T23:59:58.535Z,-3.50
